Time;durP1;ratioP1;P1;durP2;ratioP2;P2;SDS_P1;SDS_P2;PMS_P1;PMS_P2;Temp;Humidity;BMP_temperature;BMP_pressure;BME280_temperature;BME280_humidity;BME280_pressure;Samples;Min_cycle;Max_cycle;Signal;HPM_P1;HPM_P2
2023/06/25 00:02:13;;;;;;;24.10;22.00;;;15.90;99.90;;;;;;5050904;28;20595;-45
2023/06/25 00:04:39;;;;;;;24.10;22.00;;;15.80;99.90;;;;;;5068485;28;20177;-44
2023/06/25 00:07:05;;;;;;;22.40;20.60;;;15.80;99.90;;;;;;5069170;28;20247;-42
2023/06/25 00:09:30;;;;;;;24.50;22.40;;;15.80;99.90;;;;;;5068963;28;20261;-44
2023/06/25 00:11:56;;;;;;;24.67;22.50;;;15.70;99.90;;;;;;5068237;28;20412;-44
2023/06/25 00:14:22;;;;;;;22.97;20.83;;;15.70;99.90;;;;;;5068892;28;20715;-43
2023/06/25 00:16:47;;;;;;;23.00;21.00;;;15.60;99.90;;;;;;5068747;28;20245;-44
2023/06/25 00:19:17;;;;;;;22.97;20.97;;;15.60;99.90;;;;;;5068582;28;20177;-48
2023/06/25 00:21:42;;;;;;;23.30;21.30;;;15.60;99.90;;;;;;5068890;28;20185;-46
2023/06/25 00:24:08;;;;;;;23.37;21.40;;;15.60;99.90;;;;;;5068647;28;20847;-46
2023/06/25 00:26:33;;;;;;;24.03;21.83;;;15.50;99.90;;;;;;5068680;28;20710;-42
2023/06/25 00:28:59;;;;;;;22.40;20.60;;;15.50;99.90;;;;;;5068460;28;20538;-50
2023/06/25 00:31:25;;;;;;;22.33;20.50;;;15.50;99.90;;;;;;5068692;28;20234;-44
2023/06/25 00:33:51;;;;;;;23.13;21.20;;;15.50;99.90;;;;;;5068324;28;20551;-45
2023/06/25 00:36:16;;;;;;;21.20;19.50;;;15.40;99.90;;;;;;5068504;28;20423;-43
2023/06/25 00:38:42;;;;;;;22.43;20.43;;;15.40;99.90;;;;;;5068682;28;20224;-43
2023/06/25 00:41:09;;;;;;;20.10;18.50;;;15.40;99.90;;;;;;5068548;28;20290;-43
2023/06/25 00:43:37;;;;;;;22.10;20.30;;;15.30;99.90;;;;;;5068329;28;20525;-44
2023/06/25 00:46:02;;;;;;;21.70;19.60;;;15.30;99.90;;;;;;5068748;28;20588;-45
2023/06/25 00:48:28;;;;;;;21.03;19.30;;;15.30;99.90;;;;;;5068335;28;20441;-44
2023/06/25 00:51:00;;;;;;;22.07;20.13;;;15.20;99.90;;;;;;5068580;28;20582;-45
2023/06/25 00:53:31;;;;;;;21.07;19.27;;;15.20;99.90;;;;;;5068238;28;20181;-47
2023/06/25 00:55:56;;;;;;;21.50;19.80;;;15.20;99.90;;;;;;5068355;28;20894;-43
2023/06/25 00:58:22;;;;;;;21.40;19.50;;;15.20;99.90;;;;;;5050027;28;20521;-47
2023/06/25 01:00:48;;;;;;;22.07;20.07;;;15.10;99.90;;;;;;5068057;28;20181;-49
2023/06/25 01:03:30;;;;;;;21.30;19.50;;;15.10;99.90;;;;;;5068275;28;20275;-44
2023/06/25 01:06:10;;;;;;;20.23;18.60;;;15.10;99.90;;;;;;5068251;28;20477;-42
2023/06/25 01:08:37;;;;;;;20.80;19.07;;;15.10;99.90;;;;;;5068258;28;20443;-44
2023/06/25 01:11:05;;;;;;;24.13;21.20;;;15.00;99.90;;;;;;5068802;28;20412;-43
2023/06/25 01:13:31;;;;;;;23.47;21.27;;;15.00;99.90;;;;;;5068249;28;20423;-46
2023/06/25 01:15:56;;;;;;;22.53;20.53;;;15.00;99.90;;;;;;5068362;28;20488;-44
2023/06/25 01:18:23;;;;;;;21.13;19.33;;;14.90;99.90;;;;;;5050179;28;20471;-48
2023/06/25 01:20:51;;;;;;;21.50;19.70;;;14.90;99.90;;;;;;5068018;28;20205;-45
2023/06/25 01:23:17;;;;;;;22.53;20.53;;;14.90;99.90;;;;;;5069957;28;20986;-46
2023/06/25 01:25:47;;;;;;;23.43;21.27;;;14.80;99.90;;;;;;5072211;28;20498;-44
2023/06/25 01:28:13;;;;;;;22.83;20.77;;;14.80;99.90;;;;;;5072403;28;20731;-44
2023/06/25 01:30:39;;;;;;;21.13;19.33;;;14.80;99.90;;;;;;5072045;28;20423;-45
2023/06/25 01:33:04;;;;;;;21.43;19.63;;;14.80;99.90;;;;;;5071866;28;20929;-48
2023/06/25 01:35:30;;;;;;;21.47;19.47;;;14.80;99.90;;;;;;5071706;28;20187;-45
2023/06/25 01:37:56;;;;;;;21.60;19.70;;;14.70;99.90;;;;;;5071725;28;20246;-45
2023/06/25 01:40:22;;;;;;;21.50;19.60;;;14.70;99.90;;;;;;5071377;28;20718;-44
2023/06/25 01:42:47;;;;;;;21.20;19.20;;;14.70;99.90;;;;;;5071697;28;20427;-49
2023/06/25 01:45:13;;;;;;;21.87;20.07;;;14.70;99.90;;;;;;5053356;28;20431;-46
2023/06/25 01:47:39;;;;;;;20.80;19.10;;;14.70;99.90;;;;;;5071499;28;20250;-47
2023/06/25 01:50:05;;;;;;;22.57;20.47;;;14.60;99.90;;;;;;5071291;28;20188;-44
2023/06/25 01:52:32;;;;;;;23.43;21.30;;;14.70;99.90;;;;;;5071446;28;20185;-48
2023/06/25 01:54:58;;;;;;;22.00;20.00;;;14.60;99.90;;;;;;5071183;28;20430;-42
2023/06/25 01:57:23;;;;;;;21.27;19.37;;;14.60;99.90;;;;;;5071301;28;20471;-45
2023/06/25 01:59:49;;;;;;;21.73;19.73;;;14.60;99.90;;;;;;5070996;28;20193;-47
2023/06/25 02:02:14;;;;;;;21.60;19.80;;;14.60;99.90;;;;;;5071209;28;20177;-47
2023/06/25 02:05:17;;;;;;;23.13;20.93;;;14.50;99.90;;;;;;5070429;28;20199;-43
2023/06/25 02:07:42;;;;;;;21.93;19.90;;;14.50;99.90;;;;;;5070997;28;20213;-44
2023/06/25 02:10:09;;;;;;;22.47;20.60;;;14.50;99.90;;;;;;5053082;28;20433;-48
2023/06/25 02:12:34;;;;;;;21.93;19.90;;;14.40;99.90;;;;;;5071160;28;20193;-46
2023/06/25 02:15:00;;;;;;;23.40;21.40;;;14.40;99.90;;;;;;5070941;28;20502;-44
2023/06/25 02:17:25;;;;;;;20.50;18.80;;;14.40;99.90;;;;;;5070857;28;20618;-50
2023/06/25 02:19:51;;;;;;;21.87;19.87;;;14.30;99.90;;;;;;5071023;28;20177;-49
2023/06/25 02:22:16;;;;;;;21.67;19.67;;;14.30;99.90;;;;;;5070913;28;20260;-50
2023/06/25 02:24:42;;;;;;;22.07;20.07;;;14.30;99.90;;;;;;5070929;28;20188;-48
2023/06/25 02:27:07;;;;;;;21.90;19.90;;;14.30;99.90;;;;;;5070719;28;20263;-49
2023/06/25 02:29:33;;;;;;;21.43;19.47;;;14.20;99.90;;;;;;5070842;28;20636;-47
2023/06/25 02:31:59;;;;;;;21.23;19.43;;;14.20;99.90;;;;;;5070434;28;20181;-48
2023/06/25 02:34:24;;;;;;;22.00;20.20;;;14.30;99.90;;;;;;5051844;28;20367;-50
2023/06/25 02:36:51;;;;;;;21.13;19.33;;;14.20;99.90;;;;;;5070637;28;20204;-47
2023/06/25 02:39:16;;;;;;;21.80;19.90;;;14.20;99.90;;;;;;5070884;28;20677;-52
2023/06/25 02:41:42;;;;;;;22.60;20.50;;;14.20;99.90;;;;;;5071006;28;20971;-48
2023/06/25 02:44:07;;;;;;;22.53;20.53;;;14.20;99.90;;;;;;5070566;28;20269;-52
2023/06/25 02:46:35;;;;;;;22.60;20.60;;;14.20;99.90;;;;;;5070112;28;20252;-47
2023/06/25 02:49:01;;;;;;;22.50;20.40;;;14.20;99.90;;;;;;5070395;28;20181;-48
2023/06/25 02:51:26;;;;;;;23.10;20.90;;;14.20;99.90;;;;;;5070040;28;20415;-48
2023/06/25 02:53:52;;;;;;;21.40;19.60;;;14.20;99.90;;;;;;5070308;28;20427;-48
2023/06/25 02:56:18;;;;;;;21.77;19.83;;;14.20;99.90;;;;;;5070172;28;20189;-48
2023/06/25 02:58:43;;;;;;;21.87;20.07;;;14.20;99.90;;;;;;5070247;28;20699;-48
2023/06/25 03:01:09;;;;;;;22.00;19.97;;;14.10;99.90;;;;;;5069914;28;20184;-47
2023/06/25 03:03:34;;;;;;;22.70;20.67;;;14.10;99.90;;;;;;5070169;28;20554;-45
2023/06/25 03:06:00;;;;;;;22.13;20.03;;;14.10;99.90;;;;;;5069486;28;20268;-45
2023/06/25 03:08:26;;;;;;;22.97;20.87;;;14.00;99.90;;;;;;5070141;28;20216;-46
2023/06/25 03:10:52;;;;;;;21.90;20.00;;;14.00;99.90;;;;;;5070013;28;20914;-47
2023/06/25 03:13:17;;;;;;;22.60;20.53;;;14.00;99.90;;;;;;5069949;28;20686;-43
2023/06/25 03:15:43;;;;;;;21.60;19.67;;;14.00;99.90;;;;;;5069811;28;20563;-42
2023/06/25 03:18:09;;;;;;;21.50;19.60;;;14.00;99.90;;;;;;5069702;28;20407;-44
2023/06/25 03:20:34;;;;;;;21.67;19.80;;;14.00;99.90;;;;;;5069769;28;20621;-44
2023/06/25 03:23:00;;;;;;;21.57;19.67;;;14.00;99.90;;;;;;5070162;28;20185;-43
2023/06/25 03:25:25;;;;;;;21.73;19.70;;;14.00;99.90;;;;;;5069929;28;20207;-44
2023/06/25 03:27:51;;;;;;;22.17;20.20;;;14.00;99.90;;;;;;5069646;28;20651;-44
2023/06/25 03:30:16;;;;;;;22.53;20.43;;;14.10;99.90;;;;;;5051632;28;20545;-48
2023/06/25 03:32:42;;;;;;;20.53;18.70;;;14.00;99.90;;;;;;5069435;28;20200;-47
2023/06/25 03:35:08;;;;;;;22.13;20.13;;;14.00;99.90;;;;;;5069429;28;20192;-45
2023/06/25 03:37:33;;;;;;;21.50;19.70;;;14.00;99.90;;;;;;5069322;28;20217;-42
2023/06/25 03:39:59;;;;;;;22.97;20.60;;;14.00;99.90;;;;;;5069646;28;20185;-45
2023/06/25 03:42:25;;;;;;;21.03;19.23;;;14.00;99.90;;;;;;5069239;28;20177;-45
2023/06/25 03:44:53;;;;;;;22.30;20.33;;;14.00;99.90;;;;;;5069281;28;20580;-44
2023/06/25 03:47:19;;;;;;;20.57;18.67;;;14.00;99.90;;;;;;5069065;28;20277;-46
2023/06/25 03:49:45;;;;;;;23.10;21.00;;;14.00;99.90;;;;;;5069127;28;20821;-43
2023/06/25 03:52:10;;;;;;;21.90;20.00;;;14.00;99.90;;;;;;5068908;28;20523;-50
2023/06/25 03:54:36;;;;;;;21.47;19.67;;;14.00;99.90;;;;;;5069041;28;20461;-44
2023/06/25 03:57:02;;;;;;;21.60;19.63;;;14.00;99.90;;;;;;5068869;28;20670;-47
2023/06/25 03:59:28;;;;;;;22.10;20.20;;;14.00;99.90;;;;;;5069082;28;20256;-44
2023/06/25 04:01:53;;;;;;;21.60;19.70;;;14.00;99.90;;;;;;5068669;28;20514;-43
2023/06/25 04:04:19;;;;;;;22.27;20.17;;;14.00;99.90;;;;;;5068909;28;20192;-47
2023/06/25 04:06:45;;;;;;;21.80;19.73;;;14.00;99.90;;;;;;5068825;28;20600;-44
2023/06/25 04:09:10;;;;;;;21.00;19.20;;;14.00;99.90;;;;;;5068950;28;20183;-47
2023/06/25 04:11:37;;;;;;;20.83;19.03;;;14.00;99.90;;;;;;5069050;28;20649;-43
2023/06/25 04:14:02;;;;;;;22.43;20.43;;;14.10;99.90;;;;;;5068889;28;20454;-48
2023/06/25 04:16:28;;;;;;;22.60;20.63;;;14.10;99.90;;;;;;5050633;28;20203;-48
2023/06/25 04:18:54;;;;;;;21.83;19.73;;;14.10;99.90;;;;;;5068651;28;20177;-44
2023/06/25 04:21:20;;;;;;;22.33;20.13;;;14.10;99.90;;;;;;5068552;28;20779;-46
2023/06/25 04:23:46;;;;;;;23.00;19.77;;;14.20;99.90;;;;;;5068781;28;20193;-44
2023/06/25 04:26:12;;;;;;;21.37;19.37;;;14.20;99.90;;;;;;5069166;28;20192;-45
2023/06/25 04:28:37;;;;;;;21.10;19.30;;;14.20;99.90;;;;;;5068630;28;20510;-42
2023/06/25 04:31:03;;;;;;;21.00;19.10;;;14.30;99.90;;;;;;5050819;28;20201;-42
2023/06/25 04:33:28;;;;;;;20.33;18.70;;;14.30;99.90;;;;;;5068335;28;20203;-45
2023/06/25 04:35:54;;;;;;;19.80;18.00;;;14.40;99.90;;;;;;5068426;28;20631;-43
2023/06/25 04:38:20;;;;;;;21.80;19.70;;;14.40;99.90;;;;;;5068479;28;20213;-45
2023/06/25 04:40:45;;;;;;;20.37;18.67;;;14.50;99.90;;;;;;5068463;28;20239;-43
2023/06/25 04:43:11;;;;;;;20.90;19.00;;;14.60;99.90;;;;;;5068737;28;20177;-42
2023/06/25 04:45:36;;;;;;;20.23;18.53;;;14.60;99.90;;;;;;5050591;28;20707;-42
2023/06/25 04:48:02;;;;;;;20.90;19.30;;;14.60;99.90;;;;;;5068191;28;20267;-45
2023/06/25 04:50:28;;;;;;;20.83;19.27;;;14.70;99.90;;;;;;5068928;28;20632;-46
2023/06/25 04:52:54;;;;;;;19.87;18.27;;;14.80;99.90;;;;;;5068230;28;20200;-45
2023/06/25 04:55:20;;;;;;;21.90;20.10;;;14.90;99.90;;;;;;5068677;28;20192;-47
2023/06/25 04:57:45;;;;;;;20.13;18.30;;;14.90;99.90;;;;;;5069201;28;20463;-45
2023/06/25 05:00:12;;;;;;;20.97;19.37;;;15.00;99.90;;;;;;5072379;28;20197;-47
2023/06/25 05:02:37;;;;;;;19.90;18.40;;;15.00;99.90;;;;;;5072309;28;20233;-45
2023/06/25 05:05:03;;;;;;;19.10;17.60;;;15.20;99.90;;;;;;5072682;28;20455;-46
2023/06/25 05:07:29;;;;;;;19.13;17.63;;;15.30;99.90;;;;;;5072169;28;20323;-46
2023/06/25 05:09:54;;;;;;;20.50;18.90;;;15.40;99.90;;;;;;5072294;28;20434;-47
2023/06/25 05:12:20;;;;;;;19.97;18.33;;;15.40;99.90;;;;;;5072401;28;20219;-50
2023/06/25 05:14:45;;;;;;;19.00;17.60;;;15.50;99.90;;;;;;5072191;28;20219;-51
2023/06/25 05:17:11;;;;;;;20.10;18.40;;;15.50;99.90;;;;;;5071964;28;20208;-45
2023/06/25 05:19:36;;;;;;;19.60;18.20;;;15.60;99.90;;;;;;5071997;28;20663;-53
2023/06/25 05:22:04;;;;;;;19.57;17.97;;;15.70;99.90;;;;;;5072140;28;20193;-46
2023/06/25 05:24:30;;;;;;;18.90;17.40;;;15.80;99.90;;;;;;5072246;28;20185;-49
2023/06/25 05:26:56;;;;;;;19.30;17.87;;;15.90;99.90;;;;;;5072135;28;20442;-49
2023/06/25 05:29:21;;;;;;;18.33;17.07;;;15.90;99.90;;;;;;5072273;28;20599;-44
2023/06/25 05:31:47;;;;;;;19.87;18.20;;;16.00;99.90;;;;;;5071752;28;20193;-47
2023/06/25 05:34:13;;;;;;;19.60;18.20;;;16.10;99.90;;;;;;5071799;28;20541;-44
2023/06/25 05:36:38;;;;;;;18.63;17.33;;;16.20;99.90;;;;;;5071719;28;20191;-51
2023/06/25 05:39:04;;;;;;;19.13;17.67;;;16.30;99.90;;;;;;5071602;28;20199;-50
2023/06/25 05:41:30;;;;;;;19.57;18.07;;;16.30;99.90;;;;;;5071625;28;20659;-43
2023/06/25 05:43:55;;;;;;;18.43;16.90;;;16.40;99.90;;;;;;5071519;28;20585;-42
2023/06/25 05:46:21;;;;;;;18.93;17.53;;;16.40;99.90;;;;;;5071484;28;20177;-47
2023/06/25 05:48:47;;;;;;;18.93;17.53;;;16.60;99.90;;;;;;5071641;28;20197;-44
2023/06/25 05:51:13;;;;;;;18.90;17.50;;;16.70;99.90;;;;;;5071385;28;20760;-42
2023/06/25 05:53:40;;;;;;;20.60;19.00;;;16.70;99.90;;;;;;5071094;28;20190;-43
2023/06/25 05:56:07;;;;;;;19.13;17.73;;;16.80;99.90;;;;;;5071559;28;20189;-45
2023/06/25 05:58:33;;;;;;;19.37;17.97;;;16.90;99.90;;;;;;5071087;28;20464;-44
2023/06/25 06:00:59;;;;;;;19.07;17.47;;;17.00;99.90;;;;;;5071130;28;20965;-43
2023/06/25 06:03:25;;;;;;;18.73;17.37;;;17.00;99.90;;;;;;5071132;28;20426;-44
2023/06/25 06:05:50;;;;;;;18.50;17.20;;;17.20;99.90;;;;;;5070880;28;20582;-44
2023/06/25 06:08:16;;;;;;;18.67;17.37;;;17.30;99.90;;;;;;5071083;28;20323;-44
2023/06/25 06:10:41;;;;;;;18.60;17.20;;;17.40;99.90;;;;;;5070038;28;20185;-45
2023/06/25 06:13:07;;;;;;;18.10;16.90;;;17.40;99.90;;;;;;5071412;28;20637;-44
2023/06/25 06:15:32;;;;;;;18.53;17.13;;;17.40;99.90;;;;;;5071489;28;20273;-45
2023/06/25 06:17:58;;;;;;;18.23;17.03;;;17.50;99.90;;;;;;5070856;28;20209;-44
2023/06/25 06:20:24;;;;;;;18.90;17.53;;;17.60;99.90;;;;;;5052595;28;20200;-48
2023/06/25 06:22:49;;;;;;;18.83;17.53;;;17.80;99.90;;;;;;5070718;28;20181;-45
2023/06/25 06:25:15;;;;;;;18.43;17.17;;;17.90;99.90;;;;;;5070914;28;20190;-48
2023/06/25 06:27:40;;;;;;;18.33;16.90;;;18.00;99.90;;;;;;5070615;28;20185;-45
2023/06/25 06:30:07;;;;;;;17.97;16.77;;;18.10;99.90;;;;;;5070736;28;20529;-44
2023/06/25 06:32:32;;;;;;;17.77;16.57;;;18.20;99.90;;;;;;5070518;28;20213;-43
2023/06/25 06:34:58;;;;;;;18.57;17.37;;;18.30;99.90;;;;;;5070747;28;21070;-44
2023/06/25 06:37:23;;;;;;;18.27;16.97;;;18.40;99.90;;;;;;5070405;28;20205;-44
2023/06/25 06:39:49;;;;;;;18.20;16.90;;;18.50;99.90;;;;;;5070530;28;20216;-47
2023/06/25 06:42:15;;;;;;;19.00;17.70;;;18.70;99.90;;;;;;5070457;28;20188;-44
2023/06/25 06:44:40;;;;;;;19.63;18.13;;;18.70;99.90;;;;;;5070316;28;20254;-50
2023/06/25 06:47:06;;;;;;;19.37;18.07;;;18.90;99.90;;;;;;5070335;28;20189;-49
2023/06/25 06:49:31;;;;;;;18.97;17.67;;;19.00;99.90;;;;;;5070702;28;20750;-45
2023/06/25 06:51:57;;;;;;;17.93;16.73;;;19.00;99.90;;;;;;5070476;28;20177;-46
2023/06/25 06:54:22;;;;;;;18.00;16.80;;;19.10;99.90;;;;;;5070285;28;20192;-47
2023/06/25 06:56:48;;;;;;;18.03;16.67;;;19.20;99.90;;;;;;5070143;28;20204;-43
2023/06/25 06:59:14;;;;;;;17.43;16.27;;;19.40;99.90;;;;;;5069994;28;20639;-46
2023/06/25 07:01:39;;;;;;;16.90;15.70;;;19.50;99.90;;;;;;5069990;28;20242;-49
2023/06/25 07:04:05;;;;;;;17.60;16.40;;;19.70;99.90;;;;;;5070085;28;20209;-47
2023/06/25 07:06:30;;;;;;;18.40;17.10;;;19.80;99.90;;;;;;5069578;28;20229;-44
2023/06/25 07:08:56;;;;;;;18.87;17.40;;;19.90;99.90;;;;;;5070142;28;20193;-46
2023/06/25 07:11:22;;;;;;;18.20;16.90;;;20.00;99.90;;;;;;5069953;28;20181;-47
2023/06/25 07:13:47;;;;;;;16.97;15.77;;;20.10;99.90;;;;;;5069723;28;20177;-46
2023/06/25 07:16:13;;;;;;;16.37;15.27;;;20.20;99.90;;;;;;5069790;28;20185;-47
2023/06/25 07:18:38;;;;;;;17.23;16.03;;;20.30;99.90;;;;;;5069687;28;20560;-44
2023/06/25 07:21:05;;;;;;;17.30;16.07;;;20.50;99.90;;;;;;5069424;28;20231;-48
2023/06/25 07:23:32;;;;;;;17.60;16.20;;;20.50;99.90;;;;;;5069513;28;20272;-45
2023/06/25 07:25:58;;;;;;;17.00;15.90;;;20.60;99.90;;;;;;5069610;28;20927;-44
2023/06/25 07:28:23;;;;;;;17.00;15.80;;;20.70;99.90;;;;;;5069430;28;20423;-43
2023/06/25 07:30:49;;;;;;;17.10;15.80;;;20.90;99.90;;;;;;5069996;28;20185;-46
2023/06/25 07:33:15;;;;;;;17.03;15.83;;;21.00;99.90;;;;;;5069569;28;20189;-46
2023/06/25 07:35:40;;;;;;;16.13;15.13;;;21.10;99.90;;;;;;5069211;28;20427;-44
2023/06/25 07:38:06;;;;;;;16.70;15.13;;;21.30;99.90;;;;;;5069402;28;20201;-45
2023/06/25 07:40:32;;;;;;;15.90;14.80;;;21.50;99.90;;;;;;5069142;28;20188;-46
2023/06/25 07:42:57;;;;;;;15.73;14.50;;;21.60;99.90;;;;;;5069149;28;20647;-44
2023/06/25 07:45:23;;;;;;;15.70;14.70;;;21.60;99.90;;;;;;5069283;28;20232;-48
2023/06/25 07:47:49;;;;;;;15.80;14.70;;;21.80;99.90;;;;;;5069195;28;20427;-48
2023/06/25 07:50:14;;;;;;;15.80;14.70;;;21.90;98.20;;;;;;5069026;28;20268;-46
2023/06/25 07:52:40;;;;;;;15.10;14.10;;;22.00;99.30;;;;;;5069059;28;20216;-46
2023/06/25 07:55:06;;;;;;;15.47;14.50;;;22.10;99.90;;;;;;5068952;28;20295;-48
2023/06/25 07:57:31;;;;;;;15.13;14.13;;;22.30;99.40;;;;;;5068940;28;20212;-45
2023/06/25 07:59:57;;;;;;;14.17;13.07;;;22.40;98.40;;;;;;5050864;28;20273;-46
2023/06/25 08:02:23;;;;;;;14.77;13.87;;;22.50;96.90;;;;;;5068973;28;20242;-46
2023/06/25 08:04:49;;;;;;;15.33;14.33;;;22.60;94.30;;;;;;5069041;28;20639;-49
2023/06/25 08:07:14;;;;;;;14.80;13.80;;;22.70;93.70;;;;;;5068879;28;20241;-45
2023/06/25 08:09:41;;;;;;;14.93;13.93;;;22.80;93.10;;;;;;5068935;28;20480;-48
2023/06/25 08:12:07;;;;;;;14.57;13.67;;;22.90;92.80;;;;;;5068848;28;20189;-46
2023/06/25 08:14:33;;;;;;;14.20;13.40;;;23.10;91.30;;;;;;5068893;28;20419;-48
2023/06/25 08:16:58;;;;;;;15.40;14.40;;;23.20;92.00;;;;;;5069008;28;20220;-44
2023/06/25 08:19:24;;;;;;;14.57;13.77;;;23.40;91.60;;;;;;5068442;28;20197;-47
2023/06/25 08:21:49;;;;;;;15.37;14.43;;;23.60;91.70;;;;;;5068696;28;20189;-48
2023/06/25 08:24:15;;;;;;;14.90;13.80;;;23.70;91.30;;;;;;5068397;28;20234;-44
2023/06/25 08:26:40;;;;;;;15.27;14.20;;;23.90;91.00;;;;;;5068706;28;20535;-49
2023/06/25 08:29:06;;;;;;;14.10;13.30;;;23.90;87.00;;;;;;5050520;28;20264;-47
2023/06/25 08:31:32;;;;;;;14.93;14.00;;;24.10;79.00;;;;;;5068651;28;20192;-45
2023/06/25 08:33:57;;;;;;;15.43;14.43;;;24.10;79.70;;;;;;5067863;28;20220;-48
2023/06/25 08:36:23;;;;;;;12.97;12.17;;;24.20;80.10;;;;;;5068491;28;20213;-50
2023/06/25 08:38:48;;;;;;;14.73;13.73;;;24.30;76.30;;;;;;5068601;28;20205;-51
2023/06/25 08:41:14;;;;;;;13.97;13.17;;;24.40;74.60;;;;;;5068402;28;20249;-52
2023/06/25 08:43:40;;;;;;;13.70;12.90;;;24.60;77.80;;;;;;5068565;28;20695;-50
2023/06/25 08:46:08;;;;;;;13.07;12.27;;;24.70;75.50;;;;;;5068446;28;20185;-48
2023/06/25 08:48:36;;;;;;;13.63;12.83;;;24.80;76.10;;;;;;5068542;28;20470;-50
2023/06/25 08:51:17;;;;;;;14.30;13.50;;;24.90;71.30;;;;;;5068334;28;20869;-47
2023/06/25 08:53:44;;;;;;;14.03;13.33;;;25.10;68.80;;;;;;5068085;28;20500;-50
2023/06/25 08:56:14;;;;;;;13.60;12.80;;;25.20;67.50;;;;;;5068525;28;20426;-50
2023/06/25 08:58:40;;;;;;;13.30;12.50;;;25.50;66.10;;;;;;5068485;28;20908;-53
2023/06/25 09:01:05;;;;;;;13.90;13.07;;;25.70;65.10;;;;;;5068207;28;20430;-45
2023/06/25 09:03:31;;;;;;;13.90;13.10;;;25.90;66.30;;;;;;5068668;28;20683;-48
2023/06/25 09:05:57;;;;;;;13.67;12.87;;;26.10;64.20;;;;;;5067790;28;20476;-43
2023/06/25 09:08:24;;;;;;;14.70;13.90;;;26.30;59.30;;;;;;5068149;28;20181;-43
2023/06/25 09:10:55;;;;;;;13.90;13.10;;;26.50;61.80;;;;;;5067995;28;20415;-44
2023/06/25 09:13:27;;;;;;;13.97;13.17;;;26.80;64.10;;;;;;5068255;28;20432;-49
2023/06/25 09:16:00;;;;;;;15.10;14.20;;;27.00;63.60;;;;;;5068107;28;20420;-50
2023/06/25 09:18:26;;;;;;;15.10;14.20;;;27.30;58.90;;;;;;5068194;28;20466;-49
2023/06/25 09:20:53;;;;;;;14.43;13.67;;;27.50;57.60;;;;;;5068165;28;20893;-49
2023/06/25 09:23:20;;;;;;;13.90;13.20;;;27.60;55.60;;;;;;5068066;28;20177;-51
2023/06/25 09:25:46;;;;;;;14.50;13.60;;;27.60;54.00;;;;;;5067899;28;20424;-48
2023/06/25 09:28:12;;;;;;;14.07;13.20;;;27.60;53.30;;;;;;5068141;28;20466;-50
2023/06/25 09:30:41;;;;;;;14.20;13.40;;;27.70;53.70;;;;;;5067922;28;20423;-49
2023/06/25 09:33:08;;;;;;;13.90;13.20;;;27.80;53.20;;;;;;5068072;28;20185;-51
2023/06/25 09:35:34;;;;;;;13.97;13.10;;;28.00;52.40;;;;;;5067670;28;20454;-50
2023/06/25 09:38:00;;;;;;;15.20;14.30;;;28.50;51.80;;;;;;5068296;28;20469;-52
2023/06/25 09:40:26;;;;;;;14.30;13.60;;;28.80;48.70;;;;;;5068032;28;20466;-49
2023/06/25 09:42:54;;;;;;;14.17;13.37;;;29.10;48.40;;;;;;5068034;28;20918;-48
2023/06/25 09:45:21;;;;;;;14.03;13.33;;;29.30;49.00;;;;;;5071134;28;20486;-49
2023/06/25 09:47:48;;;;;;;14.20;13.40;;;29.60;49.30;;;;;;5071523;28;20419;-49
2023/06/25 09:50:27;;;;;;;14.83;14.07;;;29.70;47.60;;;;;;5071346;28;20438;-48
2023/06/25 09:52:55;;;;;;;15.63;14.73;;;29.90;46.20;;;;;;5071409;28;20434;-50
2023/06/25 09:55:21;;;;;;;15.47;14.60;;;29.80;47.10;;;;;;5071767;28;20798;-52
2023/06/25 09:57:51;;;;;;;15.20;14.30;;;30.00;47.20;;;;;;5071439;28;20470;-48
2023/06/25 10:00:19;;;;;;;14.67;13.87;;;30.40;44.80;;;;;;5071342;28;20416;-49
2023/06/25 10:02:44;;;;;;;14.87;14.07;;;30.90;43.50;;;;;;5071169;28;20443;-50
2023/06/25 10:05:11;;;;;;;14.17;13.47;;;31.40;40.90;;;;;;5071711;28;20485;-50
2023/06/25 10:07:37;;;;;;;14.70;13.90;;;31.80;42.70;;;;;;5071196;28;20232;-52
2023/06/25 10:10:03;;;;;;;14.27;13.57;;;32.20;39.00;;;;;;5071111;28;20415;-47
2023/06/25 10:12:48;;;;;;;13.70;13.00;;;31.90;39.50;;;;;;5071036;28;20447;-45
2023/06/25 10:15:13;;;;;;;14.40;13.60;;;32.10;39.00;;;;;;5071059;28;20481;-45
2023/06/25 10:17:50;;;;;;;14.67;13.87;;;32.30;35.10;;;;;;5070862;28;20862;-44
2023/06/25 10:20:31;;;;;;;14.10;13.40;;;32.60;34.10;;;;;;5070972;28;20219;-51
2023/06/25 10:23:13;;;;;;;15.10;14.30;;;33.10;35.50;;;;;;5071006;28;20498;-50
2023/06/25 10:25:53;;;;;;;15.50;14.70;;;33.70;34.20;;;;;;5070420;28;20779;-50
2023/06/25 10:28:19;;;;;;;14.40;13.63;;;34.40;31.90;;;;;;5070930;28;20423;-54
2023/06/25 10:30:49;;;;;;;14.00;13.30;;;34.50;32.00;;;;;;5070752;28;20427;-47
2023/06/25 10:33:16;;;;;;;14.70;14.00;;;35.20;32.20;;;;;;5070694;28;20200;-47
2023/06/25 10:35:43;;;;;;;15.00;14.20;;;35.40;30.10;;;;;;5070571;28;20419;-48
2023/06/25 10:38:09;;;;;;;14.67;13.97;;;35.30;29.20;;;;;;5070449;28;20471;-47
2023/06/25 10:40:39;;;;;;;13.57;12.87;;;34.80;28.00;;;;;;5070504;28;20476;-45
2023/06/25 10:43:05;;;;;;;14.60;13.90;;;34.20;29.80;;;;;;5070551;28;20263;-46
2023/06/25 10:45:32;;;;;;;14.90;14.20;;;33.50;29.60;;;;;;5070282;28;20424;-50
2023/06/25 10:48:08;;;;;;;15.30;14.40;;;32.90;32.80;;;;;;5070757;28;20557;-51
2023/06/25 10:50:35;;;;;;;15.10;14.40;;;32.50;32.70;;;;;;5070327;28;20545;-47
2023/06/25 10:53:01;;;;;;;14.20;13.40;;;32.10;33.50;;;;;;5070500;28;20812;-49
2023/06/25 10:55:27;;;;;;;13.87;13.17;;;31.60;35.40;;;;;;5069829;28;20905;-44
2023/06/25 10:57:54;;;;;;;14.90;14.10;;;31.40;36.90;;;;;;5069977;28;20848;-45
2023/06/25 11:00:25;;;;;;;15.70;14.80;;;31.40;37.60;;;;;;5070566;28;21114;-46
2023/06/25 11:02:51;;;;;;;13.47;12.77;;;32.10;36.20;;;;;;5069893;28;20419;-43
2023/06/25 11:05:18;;;;;;;13.93;13.23;;;33.10;35.50;;;;;;5070572;28;20592;-52
2023/06/25 11:07:43;;;;;;;13.63;12.93;;;33.80;32.30;;;;;;5069818;28;20528;-45
2023/06/25 11:10:09;;;;;;;13.37;12.67;;;34.20;29.30;;;;;;5070153;28;20820;-48
2023/06/25 11:12:35;;;;;;;14.17;13.43;;;34.10;29.80;;;;;;5069716;28;20524;-46
2023/06/25 11:15:00;;;;;;;14.50;13.80;;;34.50;31.80;;;;;;5070045;28;20624;-47
2023/06/25 11:17:26;;;;;;;13.63;12.93;;;34.80;30.00;;;;;;5069590;28;20284;-44
2023/06/25 11:19:53;;;;;;;14.93;14.17;;;34.30;30.40;;;;;;5069891;28;20185;-52
2023/06/25 11:22:19;;;;;;;14.33;13.63;;;33.90;30.20;;;;;;5069565;28;20193;-48
2023/06/25 11:24:45;;;;;;;13.77;13.07;;;33.50;31.40;;;;;;5051813;28;20446;-47
2023/06/25 11:27:11;;;;;;;14.17;13.47;;;33.40;31.30;;;;;;5069331;28;20419;-49
2023/06/25 11:29:38;;;;;;;14.50;13.80;;;33.10;32.20;;;;;;5069576;28;20185;-44
2023/06/25 11:32:07;;;;;;;14.43;13.73;;;32.90;33.90;;;;;;5069333;28;20208;-45
2023/06/25 11:34:34;;;;;;;14.60;13.80;;;33.00;32.50;;;;;;5069455;28;20423;-50
2023/06/25 11:37:14;;;;;;;14.17;13.47;;;33.10;33.40;;;;;;5069296;28;20489;-45
2023/06/25 11:39:47;;;;;;;13.80;13.20;;;33.90;31.90;;;;;;5069894;28;20416;-50
2023/06/25 11:42:15;;;;;;;14.13;13.43;;;34.20;31.30;;;;;;5069500;28;20920;-44
2023/06/25 11:44:41;;;;;;;14.70;14.00;;;34.30;31.00;;;;;;5069412;28;20909;-49
2023/06/25 11:47:07;;;;;;;14.03;13.33;;;34.20;31.90;;;;;;5069148;28;20501;-45
2023/06/25 11:49:33;;;;;;;13.90;13.10;;;34.60;29.70;;;;;;5069301;28;20419;-48
2023/06/25 11:51:58;;;;;;;12.73;12.13;;;35.20;29.50;;;;;;5069020;28;20948;-52
2023/06/25 11:54:24;;;;;;;13.80;13.10;;;35.50;26.30;;;;;;5069229;28;20647;-48
2023/06/25 11:56:50;;;;;;;14.10;13.50;;;35.40;27.70;;;;;;5069159;28;20665;-52
2023/06/25 11:59:16;;;;;;;14.30;13.60;;;35.10;27.80;;;;;;5069649;28;20593;-46
2023/06/25 12:01:41;;;;;;;13.90;13.30;;;34.70;28.90;;;;;;5068751;28;20695;-47
2023/06/25 12:04:07;;;;;;;13.13;12.43;;;34.90;29.80;;;;;;5069071;28;20181;-46
2023/06/25 12:06:33;;;;;;;12.83;12.23;;;35.70;28.90;;;;;;5068339;28;20232;-44
2023/06/25 12:08:58;;;;;;;13.77;13.10;;;36.80;27.70;;;;;;5068396;28;20181;-46
2023/06/25 12:11:24;;;;;;;14.50;13.80;;;37.80;26.20;;;;;;5068752;28;20246;-52
2023/06/25 12:13:49;;;;;;;14.40;13.70;;;38.00;24.50;;;;;;5068580;28;20262;-45
2023/06/25 12:16:15;;;;;;;14.67;13.87;;;37.50;25.60;;;;;;5069060;28;20185;-45
2023/06/25 12:18:41;;;;;;;13.60;13.00;;;36.80;25.20;;;;;;5068627;28;20212;-47
2023/06/25 12:21:06;;;;;;;13.67;12.97;;;36.10;25.70;;;;;;5068914;28;20555;-47
2023/06/25 12:23:32;;;;;;;15.40;14.60;;;35.40;27.20;;;;;;5068517;28;20274;-45
2023/06/25 12:25:57;;;;;;;13.40;12.70;;;34.80;27.90;;;;;;5068705;28;20184;-47